sensor_id;sensor_type;location;lat;lon;timestamp;temperature;humidity
25300;DHT22;13241;51.208;4.432;2022-07-23T00:00:20;17.40;99.90
25300;DHT22;13241;51.208;4.432;2022-07-23T00:02:47;17.40;99.90
25300;DHT22;13241;51.208;4.432;2022-07-23T00:05:14;17.40;99.90
25300;DHT22;13241;51.208;4.432;2022-07-23T00:07:41;17.50;99.90
25300;DHT22;13241;51.208;4.432;2022-07-23T00:10:09;17.40;99.90
25300;DHT22;13241;51.208;4.432;2022-07-23T00:12:37;17.40;99.90
25300;DHT22;13241;51.208;4.432;2022-07-23T00:15:17;17.40;99.90
25300;DHT22;13241;51.208;4.432;2022-07-23T00:17:44;17.30;99.90
25300;DHT22;13241;51.208;4.432;2022-07-23T00:20:11;17.30;99.90
25300;DHT22;13241;51.208;4.432;2022-07-23T00:22:46;17.30;99.90
25300;DHT22;13241;51.208;4.432;2022-07-23T00:25:14;17.10;99.90
25300;DHT22;13241;51.208;4.432;2022-07-23T00:28:00;17.30;99.90
25300;DHT22;13241;51.208;4.432;2022-07-23T00:30:29;17.20;99.90
25300;DHT22;13241;51.208;4.432;2022-07-23T00:33:02;17.20;99.90
25300;DHT22;13241;51.208;4.432;2022-07-23T00:35:31;17.20;99.90
25300;DHT22;13241;51.208;4.432;2022-07-23T00:37:59;17.10;99.90
25300;DHT22;13241;51.208;4.432;2022-07-23T00:40:28;17.20;99.90
25300;DHT22;13241;51.208;4.432;2022-07-23T00:42:56;17.10;99.90
25300;DHT22;13241;51.208;4.432;2022-07-23T00:45:23;17.00;99.90
25300;DHT22;13241;51.208;4.432;2022-07-23T00:47:49;17.00;99.90
25300;DHT22;13241;51.208;4.432;2022-07-23T00:50:17;17.00;99.90
25300;DHT22;13241;51.208;4.432;2022-07-23T00:52:45;17.10;99.90
25300;DHT22;13241;51.208;4.432;2022-07-23T00:55:12;17.10;99.90
25300;DHT22;13241;51.208;4.432;2022-07-23T00:57:40;17.30;99.90
25300;DHT22;13241;51.208;4.432;2022-07-23T01:00:10;17.20;99.90
25300;DHT22;13241;51.208;4.432;2022-07-23T01:02:38;17.10;99.90
25300;DHT22;13241;51.208;4.432;2022-07-23T01:05:06;17.10;99.90
25300;DHT22;13241;51.208;4.432;2022-07-23T01:07:34;17.10;99.90
25300;DHT22;13241;51.208;4.432;2022-07-23T01:10:01;17.10;99.90
25300;DHT22;13241;51.208;4.432;2022-07-23T01:12:30;17.00;99.90
25300;DHT22;13241;51.208;4.432;2022-07-23T01:14:59;17.00;99.90
25300;DHT22;13241;51.208;4.432;2022-07-23T01:17:28;17.00;99.90
25300;DHT22;13241;51.208;4.432;2022-07-23T01:19:55;16.80;99.90
25300;DHT22;13241;51.208;4.432;2022-07-23T01:22:22;16.80;99.90
25300;DHT22;13241;51.208;4.432;2022-07-23T01:24:50;16.80;99.90
25300;DHT22;13241;51.208;4.432;2022-07-23T01:27:21;16.80;99.90
25300;DHT22;13241;51.208;4.432;2022-07-23T01:29:54;16.80;99.90
25300;DHT22;13241;51.208;4.432;2022-07-23T01:32:22;16.70;99.90
25300;DHT22;13241;51.208;4.432;2022-07-23T01:34:49;16.70;99.90
25300;DHT22;13241;51.208;4.432;2022-07-23T01:37:16;16.70;99.90
25300;DHT22;13241;51.208;4.432;2022-07-23T01:39:43;16.70;99.90
25300;DHT22;13241;51.208;4.432;2022-07-23T01:42:13;16.50;99.90
25300;DHT22;13241;51.208;4.432;2022-07-23T01:44:41;16.60;99.90
25300;DHT22;13241;51.208;4.432;2022-07-23T01:47:15;16.60;99.90
25300;DHT22;13241;51.208;4.432;2022-07-23T01:49:42;16.60;99.90
25300;DHT22;13241;51.208;4.432;2022-07-23T01:52:41;16.50;99.90
25300;DHT22;13241;51.208;4.432;2022-07-23T01:55:08;16.50;99.90
25300;DHT22;13241;51.208;4.432;2022-07-23T01:57:46;16.50;99.90
25300;DHT22;13241;51.208;4.432;2022-07-23T02:00:13;16.40;99.90
25300;DHT22;13241;51.208;4.432;2022-07-23T02:02:44;16.50;99.90
25300;DHT22;13241;51.208;4.432;2022-07-23T02:05:11;16.40;99.90
25300;DHT22;13241;51.208;4.432;2022-07-23T02:07:38;16.40;99.90
25300;DHT22;13241;51.208;4.432;2022-07-23T02:10:06;16.40;99.90
25300;DHT22;13241;51.208;4.432;2022-07-23T02:12:33;16.40;99.90
25300;DHT22;13241;51.208;4.432;2022-07-23T02:15:00;16.40;99.90
25300;DHT22;13241;51.208;4.432;2022-07-23T02:17:27;16.40;99.90
25300;DHT22;13241;51.208;4.432;2022-07-23T02:19:54;16.30;99.90
25300;DHT22;13241;51.208;4.432;2022-07-23T02:22:21;16.40;99.90
25300;DHT22;13241;51.208;4.432;2022-07-23T02:24:48;16.40;99.90
25300;DHT22;13241;51.208;4.432;2022-07-23T02:27:15;16.40;99.90
25300;DHT22;13241;51.208;4.432;2022-07-23T02:29:43;16.30;99.90
25300;DHT22;13241;51.208;4.432;2022-07-23T02:32:10;16.30;99.90
25300;DHT22;13241;51.208;4.432;2022-07-23T02:34:37;16.30;99.90
25300;DHT22;13241;51.208;4.432;2022-07-23T02:37:04;16.40;99.90
25300;DHT22;13241;51.208;4.432;2022-07-23T02:39:31;16.40;99.90
25300;DHT22;13241;51.208;4.432;2022-07-23T02:41:58;16.30;99.90
25300;DHT22;13241;51.208;4.432;2022-07-23T02:44:25;16.20;99.90
25300;DHT22;13241;51.208;4.432;2022-07-23T02:46:53;16.20;99.90
25300;DHT22;13241;51.208;4.432;2022-07-23T02:49:20;16.20;99.90
25300;DHT22;13241;51.208;4.432;2022-07-23T02:51:49;16.20;99.90
25300;DHT22;13241;51.208;4.432;2022-07-23T02:54:16;16.20;99.90
25300;DHT22;13241;51.208;4.432;2022-07-23T02:56:43;16.20;99.90
25300;DHT22;13241;51.208;4.432;2022-07-23T02:59:11;16.20;99.90
25300;DHT22;13241;51.208;4.432;2022-07-23T03:01:38;16.20;99.90
25300;DHT22;13241;51.208;4.432;2022-07-23T03:04:06;16.00;99.90
25300;DHT22;13241;51.208;4.432;2022-07-23T03:06:33;16.10;99.90
25300;DHT22;13241;51.208;4.432;2022-07-23T03:09:00;16.20;99.90
25300;DHT22;13241;51.208;4.432;2022-07-23T03:11:28;16.00;99.90
25300;DHT22;13241;51.208;4.432;2022-07-23T03:13:55;16.10;99.90
25300;DHT22;13241;51.208;4.432;2022-07-23T03:16:22;16.00;99.90
25300;DHT22;13241;51.208;4.432;2022-07-23T03:18:49;16.00;99.90
25300;DHT22;13241;51.208;4.432;2022-07-23T03:21:16;16.10;99.90
25300;DHT22;13241;51.208;4.432;2022-07-23T03:23:43;15.90;99.90
25300;DHT22;13241;51.208;4.432;2022-07-23T03:26:11;16.00;99.90
25300;DHT22;13241;51.208;4.432;2022-07-23T03:28:38;16.20;99.90
25300;DHT22;13241;51.208;4.432;2022-07-23T03:31:05;15.90;99.90
25300;DHT22;13241;51.208;4.432;2022-07-23T03:33:32;15.90;99.90
25300;DHT22;13241;51.208;4.432;2022-07-23T03:35:59;15.90;99.90
25300;DHT22;13241;51.208;4.432;2022-07-23T03:38:29;15.90;99.90
25300;DHT22;13241;51.208;4.432;2022-07-23T03:40:56;15.90;99.90
25300;DHT22;13241;51.208;4.432;2022-07-23T03:43:23;15.90;99.90
25300;DHT22;13241;51.208;4.432;2022-07-23T03:45:52;15.90;99.90
25300;DHT22;13241;51.208;4.432;2022-07-23T03:48:19;15.80;99.90
25300;DHT22;13241;51.208;4.432;2022-07-23T03:50:46;16.00;99.90
25300;DHT22;13241;51.208;4.432;2022-07-23T03:53:13;15.90;99.90
25300;DHT22;13241;51.208;4.432;2022-07-23T03:55:39;15.80;99.90
25300;DHT22;13241;51.208;4.432;2022-07-23T03:58:07;15.80;99.90
25300;DHT22;13241;51.208;4.432;2022-07-23T04:00:35;15.90;99.90
25300;DHT22;13241;51.208;4.432;2022-07-23T04:03:03;15.90;99.90
25300;DHT22;13241;51.208;4.432;2022-07-23T04:05:30;15.90;99.90
25300;DHT22;13241;51.208;4.432;2022-07-23T04:08:10;15.90;99.90
25300;DHT22;13241;51.208;4.432;2022-07-23T04:10:41;15.90;99.90
25300;DHT22;13241;51.208;4.432;2022-07-23T04:13:08;15.90;99.90
25300;DHT22;13241;51.208;4.432;2022-07-23T04:15:35;15.90;99.90
25300;DHT22;13241;51.208;4.432;2022-07-23T04:18:04;16.00;99.90
25300;DHT22;13241;51.208;4.432;2022-07-23T04:20:44;16.00;99.90
25300;DHT22;13241;51.208;4.432;2022-07-23T04:23:15;16.00;99.90
25300;DHT22;13241;51.208;4.432;2022-07-23T04:25:43;15.90;99.90
25300;DHT22;13241;51.208;4.432;2022-07-23T04:28:10;16.00;99.90
25300;DHT22;13241;51.208;4.432;2022-07-23T04:30:37;16.00;99.90
25300;DHT22;13241;51.208;4.432;2022-07-23T04:33:07;16.00;99.90
25300;DHT22;13241;51.208;4.432;2022-07-23T04:35:38;16.00;99.90
25300;DHT22;13241;51.208;4.432;2022-07-23T04:38:17;16.00;99.90
25300;DHT22;13241;51.208;4.432;2022-07-23T04:40:46;16.10;99.90
25300;DHT22;13241;51.208;4.432;2022-07-23T04:43:13;16.00;99.90
25300;DHT22;13241;51.208;4.432;2022-07-23T04:45:45;16.20;99.90
25300;DHT22;13241;51.208;4.432;2022-07-23T04:48:12;16.20;99.90
25300;DHT22;13241;51.208;4.432;2022-07-23T04:50:39;16.30;99.90
25300;DHT22;13241;51.208;4.432;2022-07-23T04:53:14;16.30;99.90
25300;DHT22;13241;51.208;4.432;2022-07-23T04:55:42;16.50;99.90
25300;DHT22;13241;51.208;4.432;2022-07-23T04:58:09;16.40;99.90
25300;DHT22;13241;51.208;4.432;2022-07-23T05:00:36;16.40;99.90
25300;DHT22;13241;51.208;4.432;2022-07-23T05:03:03;16.40;99.90
25300;DHT22;13241;51.208;4.432;2022-07-23T05:05:31;16.50;99.90
25300;DHT22;13241;51.208;4.432;2022-07-23T05:08:06;16.70;99.90
25300;DHT22;13241;51.208;4.432;2022-07-23T05:10:37;16.60;99.90
25300;DHT22;13241;51.208;4.432;2022-07-23T05:13:04;16.70;99.90
25300;DHT22;13241;51.208;4.432;2022-07-23T05:15:31;16.70;99.90
25300;DHT22;13241;51.208;4.432;2022-07-23T05:17:58;16.70;99.90
25300;DHT22;13241;51.208;4.432;2022-07-23T05:20:27;16.80;99.90
25300;DHT22;13241;51.208;4.432;2022-07-23T05:22:54;16.80;99.90
25300;DHT22;13241;51.208;4.432;2022-07-23T05:25:21;17.00;99.90
25300;DHT22;13241;51.208;4.432;2022-07-23T05:27:48;17.00;99.90
25300;DHT22;13241;51.208;4.432;2022-07-23T05:30:15;17.20;99.90
25300;DHT22;13241;51.208;4.432;2022-07-23T05:32:44;17.40;99.90
25300;DHT22;13241;51.208;4.432;2022-07-23T05:35:15;17.30;99.90
25300;DHT22;13241;51.208;4.432;2022-07-23T05:37:51;17.40;99.90
25300;DHT22;13241;51.208;4.432;2022-07-23T05:40:19;17.40;99.90
25300;DHT22;13241;51.208;4.432;2022-07-23T05:42:46;17.70;99.90
25300;DHT22;13241;51.208;4.432;2022-07-23T05:45:13;18.00;99.90
25300;DHT22;13241;51.208;4.432;2022-07-23T05:47:48;18.20;99.90
25300;DHT22;13241;51.208;4.432;2022-07-23T05:50:24;18.20;99.90
25300;DHT22;13241;51.208;4.432;2022-07-23T05:52:58;18.20;99.90
25300;DHT22;13241;51.208;4.432;2022-07-23T05:56:00;18.20;99.90
25300;DHT22;13241;51.208;4.432;2022-07-23T05:58:30;18.10;99.90
25300;DHT22;13241;51.208;4.432;2022-07-23T06:00:57;18.10;99.90
25300;DHT22;13241;51.208;4.432;2022-07-23T06:03:24;18.20;99.90
25300;DHT22;13241;51.208;4.432;2022-07-23T06:05:51;18.20;99.90
25300;DHT22;13241;51.208;4.432;2022-07-23T06:08:18;18.30;99.90
25300;DHT22;13241;51.208;4.432;2022-07-23T06:10:46;18.30;99.90
25300;DHT22;13241;51.208;4.432;2022-07-23T06:13:13;18.30;99.90
25300;DHT22;13241;51.208;4.432;2022-07-23T06:15:41;18.20;99.90
25300;DHT22;13241;51.208;4.432;2022-07-23T06:18:07;18.20;99.90
25300;DHT22;13241;51.208;4.432;2022-07-23T06:20:34;18.30;99.90
25300;DHT22;13241;51.208;4.432;2022-07-23T06:23:01;18.40;99.90
25300;DHT22;13241;51.208;4.432;2022-07-23T06:25:28;18.80;99.90
25300;DHT22;13241;51.208;4.432;2022-07-23T06:27:55;18.70;99.90
25300;DHT22;13241;51.208;4.432;2022-07-23T06:30:22;18.80;99.90
25300;DHT22;13241;51.208;4.432;2022-07-23T06:32:50;18.90;99.90
25300;DHT22;13241;51.208;4.432;2022-07-23T06:35:17;19.00;99.90
25300;DHT22;13241;51.208;4.432;2022-07-23T06:37:46;19.10;99.90
25300;DHT22;13241;51.208;4.432;2022-07-23T06:40:14;19.20;99.90
25300;DHT22;13241;51.208;4.432;2022-07-23T06:42:41;19.30;99.90
25300;DHT22;13241;51.208;4.432;2022-07-23T06:45:15;19.40;99.90
25300;DHT22;13241;51.208;4.432;2022-07-23T06:47:42;19.60;99.90
25300;DHT22;13241;51.208;4.432;2022-07-23T06:50:09;19.60;99.90
25300;DHT22;13241;51.208;4.432;2022-07-23T06:52:36;19.70;99.90
25300;DHT22;13241;51.208;4.432;2022-07-23T06:55:08;19.70;99.90
25300;DHT22;13241;51.208;4.432;2022-07-23T06:57:35;19.70;99.90
25300;DHT22;13241;51.208;4.432;2022-07-23T07:00:03;19.80;99.90
25300;DHT22;13241;51.208;4.432;2022-07-23T07:02:30;19.90;99.90
25300;DHT22;13241;51.208;4.432;2022-07-23T07:04:58;20.10;99.90
25300;DHT22;13241;51.208;4.432;2022-07-23T07:07:31;20.20;99.90
25300;DHT22;13241;51.208;4.432;2022-07-23T07:09:58;20.50;99.90
25300;DHT22;13241;51.208;4.432;2022-07-23T07:12:24;20.70;99.90
25300;DHT22;13241;51.208;4.432;2022-07-23T07:14:51;21.00;99.90
25300;DHT22;13241;51.208;4.432;2022-07-23T07:17:20;21.30;99.90
25300;DHT22;13241;51.208;4.432;2022-07-23T07:19:47;21.40;99.90
25300;DHT22;13241;51.208;4.432;2022-07-23T07:22:14;21.40;99.90
25300;DHT22;13241;51.208;4.432;2022-07-23T07:24:41;21.50;99.90
25300;DHT22;13241;51.208;4.432;2022-07-23T07:27:08;21.40;99.90
25300;DHT22;13241;51.208;4.432;2022-07-23T07:29:35;21.60;99.90
25300;DHT22;13241;51.208;4.432;2022-07-23T07:32:02;21.70;99.90
25300;DHT22;13241;51.208;4.432;2022-07-23T07:34:29;21.90;99.90
25300;DHT22;13241;51.208;4.432;2022-07-23T07:36:56;22.10;99.90
25300;DHT22;13241;51.208;4.432;2022-07-23T07:39:22;22.20;99.90
25300;DHT22;13241;51.208;4.432;2022-07-23T07:41:49;22.20;99.90
25300;DHT22;13241;51.208;4.432;2022-07-23T07:44:16;22.40;99.90
25300;DHT22;13241;51.208;4.432;2022-07-23T07:46:43;22.50;99.90
25300;DHT22;13241;51.208;4.432;2022-07-23T07:49:10;22.80;99.90
25300;DHT22;13241;51.208;4.432;2022-07-23T07:51:41;22.90;99.90
25300;DHT22;13241;51.208;4.432;2022-07-23T07:54:11;22.70;99.90
25300;DHT22;13241;51.208;4.432;2022-07-23T07:56:39;22.60;99.90
25300;DHT22;13241;51.208;4.432;2022-07-23T07:59:06;22.60;99.90
25300;DHT22;13241;51.208;4.432;2022-07-23T08:01:33;22.30;99.90
25300;DHT22;13241;51.208;4.432;2022-07-23T08:04:00;22.30;99.90
25300;DHT22;13241;51.208;4.432;2022-07-23T08:06:28;22.30;99.90
25300;DHT22;13241;51.208;4.432;2022-07-23T08:08:54;22.40;99.90
25300;DHT22;13241;51.208;4.432;2022-07-23T08:11:21;22.60;99.90
25300;DHT22;13241;51.208;4.432;2022-07-23T08:13:48;22.80;99.90
25300;DHT22;13241;51.208;4.432;2022-07-23T08:16:15;22.80;99.90
25300;DHT22;13241;51.208;4.432;2022-07-23T08:18:42;23.00;99.90
25300;DHT22;13241;51.208;4.432;2022-07-23T08:21:09;23.10;99.90
25300;DHT22;13241;51.208;4.432;2022-07-23T08:23:37;23.20;99.90
25300;DHT22;13241;51.208;4.432;2022-07-23T08:26:04;23.30;99.90
25300;DHT22;13241;51.208;4.432;2022-07-23T08:28:31;23.40;99.90
25300;DHT22;13241;51.208;4.432;2022-07-23T08:30:59;23.50;99.90
25300;DHT22;13241;51.208;4.432;2022-07-23T08:33:27;23.60;99.90
25300;DHT22;13241;51.208;4.432;2022-07-23T08:36:01;23.90;99.90
25300;DHT22;13241;51.208;4.432;2022-07-23T08:38:30;24.00;99.90
25300;DHT22;13241;51.208;4.432;2022-07-23T08:40:58;24.20;99.90
25300;DHT22;13241;51.208;4.432;2022-07-23T08:43:27;24.30;99.90
25300;DHT22;13241;51.208;4.432;2022-07-23T08:45:56;24.50;99.90
25300;DHT22;13241;51.208;4.432;2022-07-23T08:48:34;24.80;99.90
25300;DHT22;13241;51.208;4.432;2022-07-23T08:51:06;24.60;99.90
25300;DHT22;13241;51.208;4.432;2022-07-23T08:53:34;24.50;99.90
25300;DHT22;13241;51.208;4.432;2022-07-23T08:56:05;24.30;99.90
25300;DHT22;13241;51.208;4.432;2022-07-23T08:58:34;24.20;99.90
25300;DHT22;13241;51.208;4.432;2022-07-23T09:01:01;24.20;99.90
25300;DHT22;13241;51.208;4.432;2022-07-23T09:03:36;24.50;99.90
25300;DHT22;13241;51.208;4.432;2022-07-23T09:06:03;24.60;99.90
25300;DHT22;13241;51.208;4.432;2022-07-23T09:08:41;24.80;99.90
25300;DHT22;13241;51.208;4.432;2022-07-23T09:11:10;24.90;99.90
25300;DHT22;13241;51.208;4.432;2022-07-23T09:13:42;25.10;99.90
25300;DHT22;13241;51.208;4.432;2022-07-23T09:16:15;25.10;99.90
25300;DHT22;13241;51.208;4.432;2022-07-23T09:18:53;24.90;99.90
25300;DHT22;13241;51.208;4.432;2022-07-23T09:21:26;25.00;99.90
25300;DHT22;13241;51.208;4.432;2022-07-23T09:24:04;25.30;99.90
25300;DHT22;13241;51.208;4.432;2022-07-23T09:26:43;25.30;99.90
25300;DHT22;13241;51.208;4.432;2022-07-23T09:29:25;25.50;99.90
25300;DHT22;13241;51.208;4.432;2022-07-23T09:32:01;25.70;99.90
25300;DHT22;13241;51.208;4.432;2022-07-23T09:34:36;25.70;99.90
25300;DHT22;13241;51.208;4.432;2022-07-23T09:37:15;25.10;99.90
25300;DHT22;13241;51.208;4.432;2022-07-23T09:39:44;25.00;99.90
25300;DHT22;13241;51.208;4.432;2022-07-23T09:42:24;25.20;99.90
25300;DHT22;13241;51.208;4.432;2022-07-23T09:44:53;25.30;99.90
25300;DHT22;13241;51.208;4.432;2022-07-23T09:47:22;25.20;99.90
25300;DHT22;13241;51.208;4.432;2022-07-23T09:50:03;25.10;99.90
25300;DHT22;13241;51.208;4.432;2022-07-23T09:52:42;25.10;99.90
25300;DHT22;13241;51.208;4.432;2022-07-23T09:55:10;25.40;99.90
25300;DHT22;13241;51.208;4.432;2022-07-23T09:57:37;25.50;99.90
25300;DHT22;13241;51.208;4.432;2022-07-23T10:00:08;25.20;99.90
25300;DHT22;13241;51.208;4.432;2022-07-23T10:02:38;25.30;99.90
25300;DHT22;13241;51.208;4.432;2022-07-23T10:05:24;25.60;99.90
25300;DHT22;13241;51.208;4.432;2022-07-23T10:08:29;25.80;99.90
25300;DHT22;13241;51.208;4.432;2022-07-23T10:11:36;25.70;99.90
25300;DHT22;13241;51.208;4.432;2022-07-23T10:14:19;26.00;99.90
25300;DHT22;13241;51.208;4.432;2022-07-23T10:16:56;26.10;99.90
25300;DHT22;13241;51.208;4.432;2022-07-23T10:19:23;26.30;99.90
25300;DHT22;13241;51.208;4.432;2022-07-23T10:21:55;26.30;99.90
25300;DHT22;13241;51.208;4.432;2022-07-23T10:24:47;26.10;99.90
25300;DHT22;13241;51.208;4.432;2022-07-23T10:35:49;26.80;99.90
25300;DHT22;13241;51.208;4.432;2022-07-23T10:38:26;26.80;99.90
25300;DHT22;13241;51.208;4.432;2022-07-23T10:40:59;27.00;99.90
25300;DHT22;13241;51.208;4.432;2022-07-23T10:43:28;27.20;99.90
25300;DHT22;13241;51.208;4.432;2022-07-23T10:45:55;27.00;99.90
25300;DHT22;13241;51.208;4.432;2022-07-23T10:48:25;26.60;99.90
25300;DHT22;13241;51.208;4.432;2022-07-23T10:51:07;26.50;99.90
25300;DHT22;13241;51.208;4.432;2022-07-23T10:59:21;27.10;99.90
25300;DHT22;13241;51.208;4.432;2022-07-23T11:01:49;27.30;99.90
25300;DHT22;13241;51.208;4.432;2022-07-23T11:04:19;27.50;99.90
25300;DHT22;13241;51.208;4.432;2022-07-23T11:09:28;27.60;99.90
25300;DHT22;13241;51.208;4.432;2022-07-23T11:17:33;28.10;99.90
25300;DHT22;13241;51.208;4.432;2022-07-23T11:23:01;28.30;99.90
25300;DHT22;13241;51.208;4.432;2022-07-23T11:25:31;28.10;99.90
25300;DHT22;13241;51.208;4.432;2022-07-23T11:28:10;28.00;99.90
25300;DHT22;13241;51.208;4.432;2022-07-23T11:30:40;28.10;99.90
25300;DHT22;13241;51.208;4.432;2022-07-23T11:35:39;27.70;99.90
25300;DHT22;13241;51.208;4.432;2022-07-23T11:40:55;27.30;99.90
25300;DHT22;13241;51.208;4.432;2022-07-23T11:43:24;27.40;99.90
25300;DHT22;13241;51.208;4.432;2022-07-23T11:45:53;27.70;99.90
25300;DHT22;13241;51.208;4.432;2022-07-23T11:48:24;27.80;99.90
25300;DHT22;13241;51.208;4.432;2022-07-23T11:50:53;27.90;99.90
25300;DHT22;13241;51.208;4.432;2022-07-23T11:53:28;28.10;99.60
25300;DHT22;13241;51.208;4.432;2022-07-23T11:56:10;28.30;99.60
25300;DHT22;13241;51.208;4.432;2022-07-23T11:58:39;28.20;98.70
25300;DHT22;13241;51.208;4.432;2022-07-23T12:01:07;28.30;99.10
25300;DHT22;13241;51.208;4.432;2022-07-23T12:03:50;28.40;99.20
25300;DHT22;13241;51.208;4.432;2022-07-23T12:06:17;28.60;99.00
25300;DHT22;13241;51.208;4.432;2022-07-23T12:08:45;28.60;98.90
25300;DHT22;13241;51.208;4.432;2022-07-23T12:11:12;28.70;99.30
25300;DHT22;13241;51.208;4.432;2022-07-23T12:13:39;28.70;99.30
25300;DHT22;13241;51.208;4.432;2022-07-23T12:16:08;28.20;98.60
25300;DHT22;13241;51.208;4.432;2022-07-23T12:18:35;27.90;98.20
25300;DHT22;13241;51.208;4.432;2022-07-23T12:21:04;27.80;99.00
25300;DHT22;13241;51.208;4.432;2022-07-23T12:23:33;27.90;98.90
25300;DHT22;13241;51.208;4.432;2022-07-23T12:26:03;28.20;98.20
25300;DHT22;13241;51.208;4.432;2022-07-23T12:28:32;28.60;97.90
25300;DHT22;13241;51.208;4.432;2022-07-23T12:30:59;28.70;97.20
25300;DHT22;13241;51.208;4.432;2022-07-23T12:33:27;28.90;97.40
25300;DHT22;13241;51.208;4.432;2022-07-23T12:35:58;29.10;97.50
25300;DHT22;13241;51.208;4.432;2022-07-23T12:38:27;29.30;96.30
25300;DHT22;13241;51.208;4.432;2022-07-23T12:40:58;29.30;96.30
25300;DHT22;13241;51.208;4.432;2022-07-23T12:45:55;29.10;96.20
25300;DHT22;13241;51.208;4.432;2022-07-23T12:48:31;29.10;96.60
25300;DHT22;13241;51.208;4.432;2022-07-23T12:53:27;29.60;96.80
25300;DHT22;13241;51.208;4.432;2022-07-23T12:56:04;29.80;95.70
25300;DHT22;13241;51.208;4.432;2022-07-23T13:01:22;29.40;95.90
25300;DHT22;13241;51.208;4.432;2022-07-23T13:09:19;29.70;95.60
25300;DHT22;13241;51.208;4.432;2022-07-23T13:11:47;30.30;95.20
25300;DHT22;13241;51.208;4.432;2022-07-23T13:14:16;30.90;94.50
25300;DHT22;13241;51.208;4.432;2022-07-23T13:16:48;31.30;93.90
25300;DHT22;13241;51.208;4.432;2022-07-23T13:19:16;31.40;93.00
25300;DHT22;13241;51.208;4.432;2022-07-23T13:21:45;31.00;93.20
25300;DHT22;13241;51.208;4.432;2022-07-23T13:24:12;30.70;94.10
25300;DHT22;13241;51.208;4.432;2022-07-23T13:26:39;30.50;92.90
25300;DHT22;13241;51.208;4.432;2022-07-23T13:29:06;30.20;93.30
25300;DHT22;13241;51.208;4.432;2022-07-23T13:31:36;30.10;93.50
25300;DHT22;13241;51.208;4.432;2022-07-23T13:34:05;30.00;93.70
25300;DHT22;13241;51.208;4.432;2022-07-23T13:36:35;29.90;93.40
25300;DHT22;13241;51.208;4.432;2022-07-23T13:39:03;29.70;93.20
25300;DHT22;13241;51.208;4.432;2022-07-23T13:41:33;29.70;93.10
25300;DHT22;13241;51.208;4.432;2022-07-23T13:44:02;29.70;92.70
25300;DHT22;13241;51.208;4.432;2022-07-23T13:46:30;29.60;93.10
25300;DHT22;13241;51.208;4.432;2022-07-23T13:48:57;29.80;93.60
25300;DHT22;13241;51.208;4.432;2022-07-23T13:51:25;30.20;93.40
25300;DHT22;13241;51.208;4.432;2022-07-23T13:53:54;30.40;93.40
25300;DHT22;13241;51.208;4.432;2022-07-23T13:56:21;30.40;93.20
25300;DHT22;13241;51.208;4.432;2022-07-23T13:58:48;30.30;92.70
25300;DHT22;13241;51.208;4.432;2022-07-23T14:01:15;30.10;93.10
25300;DHT22;13241;51.208;4.432;2022-07-23T14:03:44;30.00;93.50
25300;DHT22;13241;51.208;4.432;2022-07-23T14:06:11;30.30;93.20
25300;DHT22;13241;51.208;4.432;2022-07-23T14:08:45;31.20;93.10
25300;DHT22;13241;51.208;4.432;2022-07-23T14:11:13;32.40;92.00
25300;DHT22;13241;51.208;4.432;2022-07-23T14:13:40;33.40;90.90
25300;DHT22;13241;51.208;4.432;2022-07-23T14:16:07;34.20;89.90
25300;DHT22;13241;51.208;4.432;2022-07-23T14:18:34;34.80;86.50
25300;DHT22;13241;51.208;4.432;2022-07-23T14:21:03;35.10;84.90
25300;DHT22;13241;51.208;4.432;2022-07-23T14:23:32;35.50;84.90
25300;DHT22;13241;51.208;4.432;2022-07-23T14:26:00;36.00;82.40
25300;DHT22;13241;51.208;4.432;2022-07-23T14:28:32;36.10;80.90
25300;DHT22;13241;51.208;4.432;2022-07-23T14:30:59;35.80;79.80
25300;DHT22;13241;51.208;4.432;2022-07-23T14:33:27;35.20;79.50
25300;DHT22;13241;51.208;4.432;2022-07-23T14:35:54;34.90;80.40
25300;DHT22;13241;51.208;4.432;2022-07-23T14:38:21;35.00;80.80
25300;DHT22;13241;51.208;4.432;2022-07-23T14:40:48;35.20;80.50
25300;DHT22;13241;51.208;4.432;2022-07-23T14:43:15;35.30;79.70
25300;DHT22;13241;51.208;4.432;2022-07-23T14:45:42;35.40;78.80
25300;DHT22;13241;51.208;4.432;2022-07-23T14:48:21;35.30;78.80
25300;DHT22;13241;51.208;4.432;2022-07-23T14:50:48;35.10;80.00
25300;DHT22;13241;51.208;4.432;2022-07-23T14:53:15;35.20;79.30
25300;DHT22;13241;51.208;4.432;2022-07-23T14:55:48;35.60;79.00
25300;DHT22;13241;51.208;4.432;2022-07-23T14:58:15;36.10;78.70
25300;DHT22;13241;51.208;4.432;2022-07-23T15:00:44;36.30;77.10
25300;DHT22;13241;51.208;4.432;2022-07-23T15:03:11;36.30;76.70
25300;DHT22;13241;51.208;4.432;2022-07-23T15:05:39;36.40;76.80
25300;DHT22;13241;51.208;4.432;2022-07-23T15:08:05;36.60;75.60
25300;DHT22;13241;51.208;4.432;2022-07-23T15:10:35;36.40;74.90
25300;DHT22;13241;51.208;4.432;2022-07-23T15:13:04;36.10;76.20
25300;DHT22;13241;51.208;4.432;2022-07-23T15:15:34;36.00;76.20
25300;DHT22;13241;51.208;4.432;2022-07-23T15:18:01;36.10;75.10
25300;DHT22;13241;51.208;4.432;2022-07-23T15:20:28;36.50;75.00
25300;DHT22;13241;51.208;4.432;2022-07-23T15:23:07;37.10;73.00
25300;DHT22;13241;51.208;4.432;2022-07-23T15:25:36;37.60;74.30
25300;DHT22;13241;51.208;4.432;2022-07-23T15:28:04;38.10;74.20
25300;DHT22;13241;51.208;4.432;2022-07-23T15:30:33;38.80;70.40
25300;DHT22;13241;51.208;4.432;2022-07-23T15:33:03;39.00;71.10
25300;DHT22;13241;51.208;4.432;2022-07-23T15:35:32;39.40;69.20
25300;DHT22;13241;51.208;4.432;2022-07-23T15:37:59;39.20;66.80
25300;DHT22;13241;51.208;4.432;2022-07-23T15:40:32;38.60;66.80
25300;DHT22;13241;51.208;4.432;2022-07-23T15:43:01;38.10;67.80
25300;DHT22;13241;51.208;4.432;2022-07-23T15:45:29;36.80;68.90
25300;DHT22;13241;51.208;4.432;2022-07-23T15:47:57;36.10;70.80
25300;DHT22;13241;51.208;4.432;2022-07-23T15:50:25;35.70;71.40
25300;DHT22;13241;51.208;4.432;2022-07-23T15:52:52;36.10;72.60
25300;DHT22;13241;51.208;4.432;2022-07-23T15:55:18;37.30;71.60
25300;DHT22;13241;51.208;4.432;2022-07-23T15:57:46;38.20;68.40
25300;DHT22;13241;51.208;4.432;2022-07-23T16:00:13;38.90;67.70
25300;DHT22;13241;51.208;4.432;2022-07-23T16:02:40;39.40;66.20
25300;DHT22;13241;51.208;4.432;2022-07-23T16:05:07;39.70;66.50
25300;DHT22;13241;51.208;4.432;2022-07-23T16:07:35;39.90;66.00
25300;DHT22;13241;51.208;4.432;2022-07-23T16:10:05;40.00;64.10
25300;DHT22;13241;51.208;4.432;2022-07-23T16:12:32;40.10;65.10
25300;DHT22;13241;51.208;4.432;2022-07-23T16:14:59;40.50;63.50
25300;DHT22;13241;51.208;4.432;2022-07-23T16:17:32;40.40;62.80
25300;DHT22;13241;51.208;4.432;2022-07-23T16:19:59;39.40;62.20
25300;DHT22;13241;51.208;4.432;2022-07-23T16:22:26;37.40;64.40
25300;DHT22;13241;51.208;4.432;2022-07-23T16:24:52;35.70;68.40
25300;DHT22;13241;51.208;4.432;2022-07-23T16:27:19;34.40;71.40